Погода Стужкина неделю

Гомельская область, Белоруссия

18 - 24 июня
  • 18июня
    Сегодня
    +16°
    +27°
    Практически безоблачно
    ВремяПогодаТемператураВлажностьДавлениеВетер, м/сВероятность осадков
    00:00Облачно с прояснениями+18°C83 %746 мм4.2 м/с2 %
    03:00Ясно и безоблачно+17°C91 %747 мм4.2 м/с2 %
    06:00Ясно и безоблачно+17°C88 %748 мм4.1 м/с2 %
    09:00Ясно и безоблачно+21°C72 %749 мм4.7 м/с2 %
    12:00Ясно и безоблачно+25°C56 %750 мм5.5 м/с1 %
    15:00Практически безоблачно+27°C49 %750 мм5.9 м/с8 %
    18:00Практически безоблачно+27°C50 %750 мм4.6 м/с14 %
    21:00Практически безоблачно+22°C69 %750 мм3.3 м/с2 %
  • 19июня
    Среда
    +18°
    +29°
    Облачно с прояснениями
    ВремяПогодаТемператураВлажностьДавлениеВетер, м/сВероятность осадков
    00:00Ясно и безоблачно+19°C85 %750 мм3.0 м/с2 %
    03:00Ясно и безоблачно+17°C93 %751 мм2.4 м/с1 %
    06:00Ясно и безоблачно+17°C94 %751 мм2.7 м/с2 %
    09:00Облачно с прояснениями+22°C80 %751 мм1.9 м/с2 %
    12:00Облачно с прояснениями+27°C60 %751 мм3.8 м/с13 %
    15:00Облачно с прояснениями+29°C54 %750 мм4.8 м/с6 %
    18:00Небольшая облачность+28°C55 %749 мм5.2 м/с10 %
    21:00Ясно и безоблачно+25°C63 %747 мм5.0 м/с4 %
  • 20июня
    Четверг
    +12°
    +22°
    Практически безоблачно
    ВремяПогодаТемператураВлажностьДавлениеВетер, м/сВероятность осадков
    00:00Практически безоблачно+22°C63 %747 мм5.3 м/с11 %
    03:00Практически безоблачно+20°C71 %745 мм4.8 м/с17 %
    06:00Небольшая облачность, возможен дождь с грозой+19°C80 %744 мм3.3 м/с38 %
    09:00Пасмурно, дождь+19°C93 %744 мм5.9 м/с64 %
    12:00Пасмурно, дождь+18°C78 %747 мм11.3 м/с66 %
    15:00Практически безоблачно+21°C56 %749 мм8.7 м/с49 %
    18:00Ясно и безоблачно+22°C50 %750 мм7.5 м/с19 %
    21:00Ясно и безоблачно+19°C59 %751 мм5.1 м/с4 %
  • 21июня
    Пятница
    +12°
    +24°
    Ясно и безоблачно
    ВремяПогодаТемператураВлажностьДавлениеВетер, м/сВероятность осадков
    00:00Ясно и безоблачно+16°C72 %751 мм3.4 м/с2 %
    03:00Ясно и безоблачно+14°C77 %752 мм3.5 м/с2 %
    06:00Ясно и безоблачно+13°C82 %752 мм3.2 м/с2 %
    09:00Небольшая облачность+18°C70 %751 мм3.1 м/с2 %
    12:00Практически безоблачно+22°C52 %751 мм5.3 м/с2 %
    15:00Ясно и безоблачно+24°C50 %751 мм4.5 м/с3 %
    18:00Ясно и безоблачно+24°C49 %750 мм4.5 м/с3 %
    21:00Ясно и безоблачно+19°C73 %750 мм1.8 м/с2 %
Мы используем cookies
Соглашаюсь